KAPF/APF METAR and TAF weather

Enter ICAO airport designator
Station Type Date Time Source
KAPF METAR 2020/01/20 16:11 UTC NOAA

KAPF 201611Z 02007KT 10SM SCT019 21/11 A3015 RMK AO2 T02060111


Station Type Date Time Source
KAPF Decoded METAR 2020/01/20 16:11 UTC NOAA

NAPLES MUNICIPAL AIRPORT, FL, United States (KAPF) 26-09N 081-46W
Jan 20, 2020 - 11:11 AM EST / 2020.01.20 1611 UTC
Wind: from the NNE (020 degrees) at 8 MPH (7 KT):0
Visibility: 10 mile(s):0
Sky conditions: partly cloudy
Temperature: 69.1 F (20.6 C)
Dew Point: 52.0 F (11.1 C)
Relative Humidity: 54%
Pressure (altimeter): 30.15 in. Hg (1020 hPa)
ob: KAPF 201611Z 02007KT 10SM SCT019 21/11 A3015 RMK AO2 T02060111
cycle: 16

Station Type Date Time Source
KAPF TAF 2020/01/20 15:57 UTC NOAA

TAF
AMD KAPF 201454Z 2015/2112 01010KT P6SM FEW015 SCT025 BKN035
TEMPO 2015/2016 BKN010
FM201700 35010KT P6SM FEW035 SCT250
FM210300 35007KT P6SM FEW250

Example: see airport list